sensor_id;sensor_type;location;lat;lon;timestamp;P1;durP1;ratioP1;P2;durP2;ratioP2
64597;SDS011;51004;54.692;9.332;2023-02-15T00:01:16;48.22;;;26.83;;
64597;SDS011;51004;54.692;9.332;2023-02-15T00:03:42;48.03;;;27.67;;
64597;SDS011;51004;54.692;9.332;2023-02-15T00:06:08;49.05;;;26.85;;
64597;SDS011;51004;54.692;9.332;2023-02-15T00:08:34;52.83;;;27.65;;
64597;SDS011;51004;54.692;9.332;2023-02-15T00:11:07;43.45;;;24.10;;
64597;SDS011;51004;54.692;9.332;2023-02-15T00:13:33;40.28;;;23.25;;
64597;SDS011;51004;54.692;9.332;2023-02-15T00:16:02;41.10;;;23.67;;
64597;SDS011;51004;54.692;9.332;2023-02-15T00:18:29;47.28;;;26.25;;
64597;SDS011;51004;54.692;9.332;2023-02-15T00:20:55;50.33;;;26.58;;
64597;SDS011;51004;54.692;9.332;2023-02-15T00:23:21;50.53;;;27.55;;
64597;SDS011;51004;54.692;9.332;2023-02-15T00:25:47;53.58;;;27.05;;
64597;SDS011;51004;54.692;9.332;2023-02-15T00:28:13;47.03;;;26.75;;
64597;SDS011;51004;54.692;9.332;2023-02-15T00:30:39;48.03;;;26.52;;
64597;SDS011;51004;54.692;9.332;2023-02-15T00:33:05;46.75;;;27.13;;
64597;SDS011;51004;54.692;9.332;2023-02-15T00:35:31;44.83;;;25.20;;
64597;SDS011;51004;54.692;9.332;2023-02-15T00:37:56;54.33;;;28.45;;
64597;SDS011;51004;54.692;9.332;2023-02-15T00:40:22;52.33;;;27.95;;
64597;SDS011;51004;54.692;9.332;2023-02-15T00:42:48;51.25;;;27.95;;
64597;SDS011;51004;54.692;9.332;2023-02-15T00:45:14;53.53;;;27.98;;
64597;SDS011;51004;54.692;9.332;2023-02-15T00:47:40;78.60;;;30.83;;
64597;SDS011;51004;54.692;9.332;2023-02-15T00:50:06;54.05;;;27.95;;
64597;SDS011;51004;54.692;9.332;2023-02-15T00:52:32;243.05;;;31.75;;
64597;SDS011;51004;54.692;9.332;2023-02-15T00:54:58;292.30;;;28.58;;
64597;SDS011;51004;54.692;9.332;2023-02-15T00:57:24;398.35;;;30.00;;
64597;SDS011;51004;54.692;9.332;2023-02-15T00:59:50;68.55;;;23.58;;
64597;SDS011;51004;54.692;9.332;2023-02-15T01:02:16;402.98;;;29.35;;
64597;SDS011;51004;54.692;9.332;2023-02-15T01:04:42;228.40;;;25.23;;
64597;SDS011;51004;54.692;9.332;2023-02-15T01:07:08;203.98;;;24.25;;
64597;SDS011;51004;54.692;9.332;2023-02-15T01:09:34;188.38;;;26.30;;
64597;SDS011;51004;54.692;9.332;2023-02-15T01:12:00;227.85;;;25.33;;
64597;SDS011;51004;54.692;9.332;2023-02-15T01:14:26;234.68;;;23.48;;
64597;SDS011;51004;54.692;9.332;2023-02-15T01:16:52;331.48;;;26.48;;
64597;SDS011;51004;54.692;9.332;2023-02-15T01:19:18;115.55;;;24.23;;
64597;SDS011;51004;54.692;9.332;2023-02-15T01:21:44;293.20;;;26.35;;
64597;SDS011;51004;54.692;9.332;2023-02-15T01:24:13;217.95;;;26.50;;
64597;SDS011;51004;54.692;9.332;2023-02-15T01:26:39;205.88;;;25.00;;
64597;SDS011;51004;54.692;9.332;2023-02-15T01:29:05;249.10;;;23.55;;
64597;SDS011;51004;54.692;9.332;2023-02-15T01:31:31;294.17;;;25.25;;
64597;SDS011;51004;54.692;9.332;2023-02-15T01:33:57;131.25;;;22.70;;
64597;SDS011;51004;54.692;9.332;2023-02-15T01:36:23;62.83;;;22.55;;
64597;SDS011;51004;54.692;9.332;2023-02-15T01:38:49;135.85;;;23.73;;
64597;SDS011;51004;54.692;9.332;2023-02-15T01:41:15;234.02;;;23.85;;
64597;SDS011;51004;54.692;9.332;2023-02-15T01:43:53;102.78;;;22.60;;
64597;SDS011;51004;54.692;9.332;2023-02-15T01:46:20;214.05;;;22.90;;
64597;SDS011;51004;54.692;9.332;2023-02-15T01:48:48;63.63;;;22.00;;
64597;SDS011;51004;54.692;9.332;2023-02-15T01:51:16;160.55;;;23.80;;
64597;SDS011;51004;54.692;9.332;2023-02-15T01:53:47;54.97;;;23.27;;
64597;SDS011;51004;54.692;9.332;2023-02-15T01:56:15;55.33;;;23.77;;
64597;SDS011;51004;54.692;9.332;2023-02-15T01:58:42;39.58;;;23.30;;
64597;SDS011;51004;54.692;9.332;2023-02-15T02:01:08;55.22;;;21.02;;
64597;SDS011;51004;54.692;9.332;2023-02-15T02:06:06;53.10;;;21.88;;
64597;SDS011;51004;54.692;9.332;2023-02-15T02:08:33;55.47;;;21.95;;
64597;SDS011;51004;54.692;9.332;2023-02-15T02:10:59;34.08;;;20.15;;
64597;SDS011;51004;54.692;9.332;2023-02-15T02:13:25;29.73;;;19.73;;
64597;SDS011;51004;54.692;9.332;2023-02-15T02:20:57;56.25;;;20.33;;
64597;SDS011;51004;54.692;9.332;2023-02-15T02:23:51;39.47;;;19.58;;
64597;SDS011;51004;54.692;9.332;2023-02-15T02:39:28;66.50;;;21.67;;
64597;SDS011;51004;54.692;9.332;2023-02-15T02:44:34;100.65;;;19.92;;
64597;SDS011;51004;54.692;9.332;2023-02-15T02:47:18;27.60;;;19.27;;
64597;SDS011;51004;54.692;9.332;2023-02-15T02:49:46;27.83;;;18.52;;
64597;SDS011;51004;54.692;9.332;2023-02-15T02:54:57;28.02;;;19.33;;
64597;SDS011;51004;54.692;9.332;2023-02-15T02:57:24;30.75;;;19.38;;
64597;SDS011;51004;54.692;9.332;2023-02-15T02:59:50;35.08;;;20.65;;
64597;SDS011;51004;54.692;9.332;2023-02-15T03:02:21;39.63;;;20.52;;
64597;SDS011;51004;54.692;9.332;2023-02-15T03:04:51;67.95;;;18.20;;
64597;SDS011;51004;54.692;9.332;2023-02-15T03:09:49;30.50;;;18.00;;
64597;SDS011;51004;54.692;9.332;2023-02-15T03:12:18;28.48;;;18.15;;
64597;SDS011;51004;54.692;9.332;2023-02-15T03:14:46;31.27;;;18.15;;
64597;SDS011;51004;54.692;9.332;2023-02-15T03:17:13;30.23;;;17.52;;
64597;SDS011;51004;54.692;9.332;2023-02-15T03:19:40;37.63;;;19.08;;
64597;SDS011;51004;54.692;9.332;2023-02-15T03:24:42;49.75;;;20.42;;
64597;SDS011;51004;54.692;9.332;2023-02-15T03:27:17;33.80;;;19.55;;
64597;SDS011;51004;54.692;9.332;2023-02-15T03:29:51;73.30;;;20.50;;
64597;SDS011;51004;54.692;9.332;2023-02-15T03:32:17;56.92;;;21.40;;
64597;SDS011;51004;54.692;9.332;2023-02-15T03:34:44;67.95;;;22.40;;
64597;SDS011;51004;54.692;9.332;2023-02-15T03:37:13;114.88;;;20.67;;
64597;SDS011;51004;54.692;9.332;2023-02-15T03:42:47;85.80;;;22.50;;
64597;SDS011;51004;54.692;9.332;2023-02-15T03:45:15;102.55;;;21.42;;
64597;SDS011;51004;54.692;9.332;2023-02-15T03:47:44;60.80;;;22.92;;
64597;SDS011;51004;54.692;9.332;2023-02-15T03:50:16;96.72;;;24.00;;
64597;SDS011;51004;54.692;9.332;2023-02-15T03:53:03;65.13;;;24.73;;
64597;SDS011;51004;54.692;9.332;2023-02-15T03:55:30;76.95;;;25.33;;
64597;SDS011;51004;54.692;9.332;2023-02-15T03:57:57;119.90;;;26.88;;
64597;SDS011;51004;54.692;9.332;2023-02-15T04:00:44;139.07;;;25.63;;
64597;SDS011;51004;54.692;9.332;2023-02-15T04:03:40;120.57;;;27.63;;
64597;SDS011;51004;54.692;9.332;2023-02-15T04:06:07;224.25;;;28.63;;
64597;SDS011;51004;54.692;9.332;2023-02-15T04:08:33;166.98;;;29.08;;
64597;SDS011;51004;54.692;9.332;2023-02-15T04:11:17;223.85;;;28.15;;
64597;SDS011;51004;54.692;9.332;2023-02-15T04:13:43;88.13;;;24.23;;
64597;SDS011;51004;54.692;9.332;2023-02-15T04:16:09;181.15;;;22.73;;
64597;SDS011;51004;54.692;9.332;2023-02-15T04:18:39;162.68;;;22.13;;
64597;SDS011;51004;54.692;9.332;2023-02-15T04:21:25;164.25;;;20.65;;
64597;SDS011;51004;54.692;9.332;2023-02-15T04:24:11;212.35;;;20.67;;
64597;SDS011;51004;54.692;9.332;2023-02-15T04:26:55;190.07;;;20.58;;
64597;SDS011;51004;54.692;9.332;2023-02-15T04:29:22;174.00;;;21.63;;
64597;SDS011;51004;54.692;9.332;2023-02-15T04:31:49;152.55;;;21.27;;
64597;SDS011;51004;54.692;9.332;2023-02-15T04:34:15;140.52;;;19.67;;
64597;SDS011;51004;54.692;9.332;2023-02-15T04:36:41;132.02;;;19.65;;
64597;SDS011;51004;54.692;9.332;2023-02-15T04:39:07;109.70;;;19.40;;
64597;SDS011;51004;54.692;9.332;2023-02-15T04:41:33;121.10;;;20.55;;
64597;SDS011;51004;54.692;9.332;2023-02-15T04:44:00;123.93;;;19.25;;
64597;SDS011;51004;54.692;9.332;2023-02-15T04:46:27;74.72;;;19.40;;
64597;SDS011;51004;54.692;9.332;2023-02-15T04:48:53;93.72;;;19.00;;
64597;SDS011;51004;54.692;9.332;2023-02-15T04:51:19;77.80;;;18.95;;
64597;SDS011;51004;54.692;9.332;2023-02-15T04:53:45;69.55;;;19.35;;
64597;SDS011;51004;54.692;9.332;2023-02-15T04:56:11;93.93;;;18.67;;
64597;SDS011;51004;54.692;9.332;2023-02-15T04:58:37;93.53;;;18.80;;
64597;SDS011;51004;54.692;9.332;2023-02-15T05:01:06;88.05;;;19.30;;
64597;SDS011;51004;54.692;9.332;2023-02-15T05:03:32;93.57;;;20.13;;
64597;SDS011;51004;54.692;9.332;2023-02-15T05:05:58;96.43;;;19.25;;
64597;SDS011;51004;54.692;9.332;2023-02-15T05:08:25;105.28;;;20.42;;
64597;SDS011;51004;54.692;9.332;2023-02-15T05:10:51;76.10;;;18.90;;
64597;SDS011;51004;54.692;9.332;2023-02-15T05:13:17;76.15;;;19.58;;
64597;SDS011;51004;54.692;9.332;2023-02-15T05:15:47;70.03;;;19.33;;
64597;SDS011;51004;54.692;9.332;2023-02-15T05:18:14;73.53;;;19.20;;
64597;SDS011;51004;54.692;9.332;2023-02-15T05:20:40;76.55;;;18.08;;
64597;SDS011;51004;54.692;9.332;2023-02-15T05:23:06;86.95;;;18.35;;
64597;SDS011;51004;54.692;9.332;2023-02-15T05:25:32;95.15;;;20.08;;
64597;SDS011;51004;54.692;9.332;2023-02-15T05:28:16;124.70;;;19.20;;
64597;SDS011;51004;54.692;9.332;2023-02-15T05:30:46;109.55;;;20.33;;
64597;SDS011;51004;54.692;9.332;2023-02-15T05:33:12;105.40;;;19.23;;
64597;SDS011;51004;54.692;9.332;2023-02-15T05:35:38;83.60;;;18.90;;
64597;SDS011;51004;54.692;9.332;2023-02-15T05:38:04;110.38;;;19.05;;
64597;SDS011;51004;54.692;9.332;2023-02-15T05:40:30;89.13;;;19.25;;
64597;SDS011;51004;54.692;9.332;2023-02-15T05:42:57;105.55;;;18.77;;
64597;SDS011;51004;54.692;9.332;2023-02-15T05:45:27;120.78;;;19.27;;
64597;SDS011;51004;54.692;9.332;2023-02-15T05:47:55;103.43;;;20.27;;
64597;SDS011;51004;54.692;9.332;2023-02-15T05:50:24;114.57;;;19.33;;
64597;SDS011;51004;54.692;9.332;2023-02-15T05:52:51;102.50;;;19.17;;
64597;SDS011;51004;54.692;9.332;2023-02-15T05:55:17;120.50;;;21.55;;
64597;SDS011;51004;54.692;9.332;2023-02-15T05:57:43;107.00;;;19.77;;
64597;SDS011;51004;54.692;9.332;2023-02-15T06:00:09;72.78;;;17.45;;
64597;SDS011;51004;54.692;9.332;2023-02-15T06:02:37;86.88;;;20.17;;
64597;SDS011;51004;54.692;9.332;2023-02-15T06:05:03;108.22;;;17.92;;
64597;SDS011;51004;54.692;9.332;2023-02-15T06:07:29;87.88;;;18.40;;
64597;SDS011;51004;54.692;9.332;2023-02-15T06:09:55;109.18;;;18.60;;
64597;SDS011;51004;54.692;9.332;2023-02-15T06:12:21;113.25;;;19.75;;
64597;SDS011;51004;54.692;9.332;2023-02-15T06:14:47;116.95;;;19.80;;
64597;SDS011;51004;54.692;9.332;2023-02-15T06:17:13;99.63;;;18.45;;
64597;SDS011;51004;54.692;9.332;2023-02-15T06:19:39;82.88;;;19.10;;
64597;SDS011;51004;54.692;9.332;2023-02-15T06:22:05;116.50;;;20.77;;
64597;SDS011;51004;54.692;9.332;2023-02-15T06:24:31;101.43;;;19.13;;
64597;SDS011;51004;54.692;9.332;2023-02-15T06:26:57;92.30;;;19.48;;
64597;SDS011;51004;54.692;9.332;2023-02-15T06:29:23;108.75;;;20.52;;
64597;SDS011;51004;54.692;9.332;2023-02-15T06:31:49;89.35;;;17.23;;
64597;SDS011;51004;54.692;9.332;2023-02-15T06:34:15;87.90;;;18.67;;
64597;SDS011;51004;54.692;9.332;2023-02-15T06:36:42;132.85;;;19.08;;
64597;SDS011;51004;54.692;9.332;2023-02-15T06:39:08;105.65;;;18.92;;
64597;SDS011;51004;54.692;9.332;2023-02-15T06:41:33;113.28;;;19.02;;
64597;SDS011;51004;54.692;9.332;2023-02-15T06:44:00;101.63;;;19.50;;
64597;SDS011;51004;54.692;9.332;2023-02-15T06:46:26;84.10;;;18.38;;
64597;SDS011;51004;54.692;9.332;2023-02-15T06:48:52;106.53;;;19.10;;
64597;SDS011;51004;54.692;9.332;2023-02-15T06:51:18;87.07;;;17.52;;
64597;SDS011;51004;54.692;9.332;2023-02-15T06:53:44;95.50;;;18.17;;
64597;SDS011;51004;54.692;9.332;2023-02-15T06:56:10;101.80;;;18.92;;
64597;SDS011;51004;54.692;9.332;2023-02-15T06:58:37;116.03;;;19.42;;
64597;SDS011;51004;54.692;9.332;2023-02-15T07:01:03;95.82;;;18.27;;
64597;SDS011;51004;54.692;9.332;2023-02-15T07:03:30;90.35;;;18.13;;
64597;SDS011;51004;54.692;9.332;2023-02-15T07:05:56;79.15;;;18.92;;
64597;SDS011;51004;54.692;9.332;2023-02-15T07:08:23;85.80;;;18.83;;
64597;SDS011;51004;54.692;9.332;2023-02-15T07:10:50;129.75;;;20.10;;
64597;SDS011;51004;54.692;9.332;2023-02-15T07:13:16;116.60;;;21.63;;
64597;SDS011;51004;54.692;9.332;2023-02-15T07:15:42;117.47;;;19.33;;
64597;SDS011;51004;54.692;9.332;2023-02-15T07:18:08;112.53;;;18.95;;
64597;SDS011;51004;54.692;9.332;2023-02-15T07:20:35;100.80;;;18.85;;
64597;SDS011;51004;54.692;9.332;2023-02-15T07:23:02;94.95;;;18.35;;
64597;SDS011;51004;54.692;9.332;2023-02-15T07:25:28;98.82;;;18.52;;
64597;SDS011;51004;54.692;9.332;2023-02-15T07:27:57;134.00;;;19.17;;
64597;SDS011;51004;54.692;9.332;2023-02-15T07:30:24;92.28;;;18.25;;
64597;SDS011;51004;54.692;9.332;2023-02-15T07:32:50;111.00;;;18.77;;
64597;SDS011;51004;54.692;9.332;2023-02-15T07:35:34;129.30;;;19.25;;
64597;SDS011;51004;54.692;9.332;2023-02-15T07:38:00;97.47;;;17.40;;
64597;SDS011;51004;54.692;9.332;2023-02-15T07:40:26;134.02;;;19.50;;
64597;SDS011;51004;54.692;9.332;2023-02-15T07:42:52;113.80;;;20.05;;
64597;SDS011;51004;54.692;9.332;2023-02-15T07:45:19;160.35;;;20.23;;
64597;SDS011;51004;54.692;9.332;2023-02-15T07:47:46;102.97;;;18.00;;
64597;SDS011;51004;54.692;9.332;2023-02-15T07:50:12;126.43;;;17.88;;
64597;SDS011;51004;54.692;9.332;2023-02-15T07:52:38;147.88;;;19.38;;
64597;SDS011;51004;54.692;9.332;2023-02-15T07:55:04;116.05;;;18.50;;
64597;SDS011;51004;54.692;9.332;2023-02-15T07:57:30;87.97;;;18.40;;
64597;SDS011;51004;54.692;9.332;2023-02-15T07:59:56;131.25;;;18.92;;
64597;SDS011;51004;54.692;9.332;2023-02-15T08:02:22;155.45;;;20.00;;
64597;SDS011;51004;54.692;9.332;2023-02-15T08:04:51;150.57;;;19.75;;
64597;SDS011;51004;54.692;9.332;2023-02-15T08:07:17;162.27;;;19.63;;
64597;SDS011;51004;54.692;9.332;2023-02-15T08:09:43;160.88;;;19.52;;
64597;SDS011;51004;54.692;9.332;2023-02-15T08:12:09;138.38;;;18.67;;
64597;SDS011;51004;54.692;9.332;2023-02-15T08:14:35;137.68;;;18.52;;
64597;SDS011;51004;54.692;9.332;2023-02-15T08:17:01;151.77;;;20.27;;
64597;SDS011;51004;54.692;9.332;2023-02-15T08:19:30;169.57;;;18.48;;
64597;SDS011;51004;54.692;9.332;2023-02-15T08:24:23;147.88;;;18.83;;
64597;SDS011;51004;54.692;9.332;2023-02-15T08:26:49;134.98;;;17.92;;
64597;SDS011;51004;54.692;9.332;2023-02-15T08:29:17;170.15;;;21.40;;
64597;SDS011;51004;54.692;9.332;2023-02-15T08:31:43;120.25;;;18.38;;
64597;SDS011;51004;54.692;9.332;2023-02-15T08:34:10;124.55;;;18.48;;
64597;SDS011;51004;54.692;9.332;2023-02-15T08:36:36;155.77;;;18.58;;
64597;SDS011;51004;54.692;9.332;2023-02-15T08:39:03;109.05;;;17.73;;
64597;SDS011;51004;54.692;9.332;2023-02-15T08:41:30;111.20;;;18.30;;
64597;SDS011;51004;54.692;9.332;2023-02-15T08:43:58;134.55;;;19.13;;
64597;SDS011;51004;54.692;9.332;2023-02-15T08:46:25;108.03;;;19.90;;
64597;SDS011;51004;54.692;9.332;2023-02-15T08:48:51;88.80;;;17.00;;
64597;SDS011;51004;54.692;9.332;2023-02-15T08:51:18;114.40;;;17.55;;
64597;SDS011;51004;54.692;9.332;2023-02-15T08:53:46;127.93;;;17.90;;
64597;SDS011;51004;54.692;9.332;2023-02-15T08:56:16;98.40;;;17.50;;
64597;SDS011;51004;54.692;9.332;2023-02-15T08:58:42;101.45;;;17.80;;
64597;SDS011;51004;54.692;9.332;2023-02-15T09:01:08;101.00;;;18.27;;
64597;SDS011;51004;54.692;9.332;2023-02-15T09:03:35;114.35;;;17.67;;
64597;SDS011;51004;54.692;9.332;2023-02-15T09:06:01;69.80;;;17.85;;
64597;SDS011;51004;54.692;9.332;2023-02-15T09:08:27;103.95;;;18.63;;
64597;SDS011;51004;54.692;9.332;2023-02-15T09:10:54;98.70;;;17.88;;
64597;SDS011;51004;54.692;9.332;2023-02-15T09:13:20;88.40;;;16.35;;
64597;SDS011;51004;54.692;9.332;2023-02-15T09:15:46;88.03;;;16.17;;
64597;SDS011;51004;54.692;9.332;2023-02-15T09:18:12;98.35;;;17.30;;
64597;SDS011;51004;54.692;9.332;2023-02-15T09:20:42;126.63;;;19.02;;
64597;SDS011;51004;54.692;9.332;2023-02-15T09:23:08;158.00;;;17.58;;
64597;SDS011;51004;54.692;9.332;2023-02-15T09:25:34;114.35;;;16.95;;
64597;SDS011;51004;54.692;9.332;2023-02-15T09:28:00;109.63;;;18.23;;
64597;SDS011;51004;54.692;9.332;2023-02-15T09:30:26;92.50;;;16.63;;
64597;SDS011;51004;54.692;9.332;2023-02-15T09:32:52;99.93;;;17.35;;
64597;SDS011;51004;54.692;9.332;2023-02-15T09:35:18;115.57;;;19.38;;
64597;SDS011;51004;54.692;9.332;2023-02-15T09:37:44;117.00;;;18.00;;
64597;SDS011;51004;54.692;9.332;2023-02-15T09:40:11;154.65;;;17.85;;
64597;SDS011;51004;54.692;9.332;2023-02-15T09:45:06;130.23;;;18.42;;
64597;SDS011;51004;54.692;9.332;2023-02-15T09:57:58;140.30;;;17.30;;
64597;SDS011;51004;54.692;9.332;2023-02-15T10:05:53;138.00;;;18.05;;
64597;SDS011;51004;54.692;9.332;2023-02-15T10:11:17;156.63;;;17.88;;
64597;SDS011;51004;54.692;9.332;2023-02-15T10:17:05;141.20;;;18.67;;
64597;SDS011;51004;54.692;9.332;2023-02-15T10:19:40;148.18;;;18.08;;
64597;SDS011;51004;54.692;9.332;2023-02-15T10:24:48;132.73;;;17.20;;
64597;SDS011;51004;54.692;9.332;2023-02-15T10:27:19;147.32;;;18.65;;
64597;SDS011;51004;54.692;9.332;2023-02-15T10:30:08;107.82;;;18.75;;
64597;SDS011;51004;54.692;9.332;2023-02-15T10:32:34;149.48;;;20.92;;
64597;SDS011;51004;54.692;9.332;2023-02-15T10:37:34;104.10;;;18.77;;
64597;SDS011;51004;54.692;9.332;2023-02-15T10:45:23;89.30;;;19.08;;
64597;SDS011;51004;54.692;9.332;2023-02-15T10:50:27;96.47;;;20.88;;
64597;SDS011;51004;54.692;9.332;2023-02-15T11:03:12;68.20;;;18.67;;
64597;SDS011;51004;54.692;9.332;2023-02-15T11:08:09;64.45;;;19.02;;
64597;SDS011;51004;54.692;9.332;2023-02-15T11:10:41;84.35;;;18.60;;
64597;SDS011;51004;54.692;9.332;2023-02-15T11:13:12;87.35;;;19.05;;
64597;SDS011;51004;54.692;9.332;2023-02-15T11:15:41;113.22;;;20.17;;
64597;SDS011;51004;54.692;9.332;2023-02-15T11:23:23;130.00;;;20.90;;
64597;SDS011;51004;54.692;9.332;2023-02-15T11:25:54;71.35;;;20.85;;
64597;SDS011;51004;54.692;9.332;2023-02-15T11:28:24;59.35;;;21.42;;
64597;SDS011;51004;54.692;9.332;2023-02-15T11:30:53;79.53;;;21.27;;
64597;SDS011;51004;54.692;9.332;2023-02-15T11:35:51;103.65;;;20.25;;
64597;SDS011;51004;54.692;9.332;2023-02-15T11:38:23;81.05;;;20.67;;
64597;SDS011;51004;54.692;9.332;2023-02-15T11:40:52;141.23;;;21.30;;
64597;SDS011;51004;54.692;9.332;2023-02-15T11:43:25;120.10;;;22.08;;
64597;SDS011;51004;54.692;9.332;2023-02-15T11:45:52;112.03;;;22.58;;
64597;SDS011;51004;54.692;9.332;2023-02-15T11:48:19;108.60;;;23.13;;
64597;SDS011;51004;54.692;9.332;2023-02-15T11:50:45;124.30;;;23.80;;
64597;SDS011;51004;54.692;9.332;2023-02-15T11:53:12;116.25;;;25.77;;
64597;SDS011;51004;54.692;9.332;2023-02-15T11:55:39;104.32;;;22.90;;
64597;SDS011;51004;54.692;9.332;2023-02-15T12:00:54;109.47;;;23.50;;
64597;SDS011;51004;54.692;9.332;2023-02-15T12:03:26;108.53;;;25.45;;
64597;SDS011;51004;54.692;9.332;2023-02-15T12:05:56;117.80;;;24.50;;
64597;SDS011;51004;54.692;9.332;2023-02-15T12:08:23;105.00;;;26.45;;
64597;SDS011;51004;54.692;9.332;2023-02-15T12:10:56;96.65;;;23.33;;
64597;SDS011;51004;54.692;9.332;2023-02-15T12:13:23;99.85;;;26.52;;
64597;SDS011;51004;54.692;9.332;2023-02-15T12:15:51;100.68;;;26.58;;
64597;SDS011;51004;54.692;9.332;2023-02-15T12:21:00;143.18;;;27.38;;
64597;SDS011;51004;54.692;9.332;2023-02-15T12:23:28;133.32;;;28.63;;
64597;SDS011;51004;54.692;9.332;2023-02-15T12:25:55;148.13;;;28.95;;
64597;SDS011;51004;54.692;9.332;2023-02-15T12:30:48;78.82;;;27.75;;
64597;SDS011;51004;54.692;9.332;2023-02-15T12:33:18;100.53;;;28.30;;
64597;SDS011;51004;54.692;9.332;2023-02-15T12:35:46;132.60;;;29.58;;
64597;SDS011;51004;54.692;9.332;2023-02-15T12:40:40;134.60;;;31.50;;
64597;SDS011;51004;54.692;9.332;2023-02-15T12:43:26;144.82;;;30.60;;
64597;SDS011;51004;54.692;9.332;2023-02-15T12:45:52;171.07;;;32.28;;
64597;SDS011;51004;54.692;9.332;2023-02-15T12:48:19;90.07;;;30.15;;
64597;SDS011;51004;54.692;9.332;2023-02-15T12:50:49;142.20;;;30.70;;
64597;SDS011;51004;54.692;9.332;2023-02-15T12:53:48;85.47;;;30.48;;
64597;SDS011;51004;54.692;9.332;2023-02-15T12:56:08;122.15;;;31.67;;
64597;SDS011;51004;54.692;9.332;2023-02-15T12:58:35;119.13;;;31.25;;
64597;SDS011;51004;54.692;9.332;2023-02-15T13:03:38;118.95;;;34.75;;
64597;SDS011;51004;54.692;9.332;2023-02-15T13:06:05;93.72;;;32.35;;
64597;SDS011;51004;54.692;9.332;2023-02-15T13:09:06;114.93;;;33.65;;
64597;SDS011;51004;54.692;9.332;2023-02-15T13:11:25;99.50;;;32.17;;
64597;SDS011;51004;54.692;9.332;2023-02-15T13:13:56;141.35;;;34.03;;
64597;SDS011;51004;54.692;9.332;2023-02-15T13:16:27;110.40;;;32.45;;
64597;SDS011;51004;54.692;9.332;2023-02-15T13:18:54;147.48;;;35.28;;
64597;SDS011;51004;54.692;9.332;2023-02-15T13:21:25;137.15;;;36.58;;
64597;SDS011;51004;54.692;9.332;2023-02-15T13:23:56;155.40;;;39.40;;
64597;SDS011;51004;54.692;9.332;2023-02-15T13:26:23;112.07;;;38.92;;
64597;SDS011;51004;54.692;9.332;2023-02-15T13:28:54;144.55;;;43.42;;
64597;SDS011;51004;54.692;9.332;2023-02-15T13:31:23;186.10;;;48.83;;
64597;SDS011;51004;54.692;9.332;2023-02-15T13:33:54;169.63;;;49.53;;
64597;SDS011;51004;54.692;9.332;2023-02-15T13:39:01;150.77;;;52.33;;
64597;SDS011;51004;54.692;9.332;2023-02-15T13:41:36;213.13;;;54.33;;
64597;SDS011;51004;54.692;9.332;2023-02-15T13:44:07;199.57;;;53.55;;
64597;SDS011;51004;54.692;9.332;2023-02-15T13:46:51;197.93;;;52.63;;
64597;SDS011;51004;54.692;9.332;2023-02-15T13:54:29;169.48;;;50.15;;
64597;SDS011;51004;54.692;9.332;2023-02-15T14:04:56;148.45;;;49.67;;
64597;SDS011;51004;54.692;9.332;2023-02-15T14:07:44;128.60;;;49.08;;
64597;SDS011;51004;54.692;9.332;2023-02-15T14:15:39;168.75;;;53.63;;
64597;SDS011;51004;54.692;9.332;2023-02-15T14:26:00;147.60;;;53.20;;
64597;SDS011;51004;54.692;9.332;2023-02-15T14:28:36;179.77;;;54.08;;
64597;SDS011;51004;54.692;9.332;2023-02-15T14:31:04;189.18;;;53.92;;
64597;SDS011;51004;54.692;9.332;2023-02-15T14:33:34;206.55;;;51.38;;
64597;SDS011;51004;54.692;9.332;2023-02-15T14:36:02;199.95;;;53.00;;
64597;SDS011;51004;54.692;9.332;2023-02-15T14:48:48;194.52;;;51.83;;
64597;SDS011;51004;54.692;9.332;2023-02-15T14:53:59;157.07;;;49.30;;
64597;SDS011;51004;54.692;9.332;2023-02-15T14:56:25;163.63;;;51.63;;
64597;SDS011;51004;54.692;9.332;2023-02-15T15:01:28;176.38;;;54.25;;
64597;SDS011;51004;54.692;9.332;2023-02-15T15:03:59;180.18;;;54.38;;
64597;SDS011;51004;54.692;9.332;2023-02-15T15:06:29;148.73;;;54.80;;
64597;SDS011;51004;54.692;9.332;2023-02-15T15:08:58;174.27;;;52.38;;
64597;SDS011;51004;54.692;9.332;2023-02-15T15:18:52;225.85;;;51.45;;
64597;SDS011;51004;54.692;9.332;2023-02-15T15:24:05;186.55;;;51.85;;
64597;SDS011;51004;54.692;9.332;2023-02-15T15:26:32;190.75;;;53.55;;
64597;SDS011;51004;54.692;9.332;2023-02-15T15:29:02;192.57;;;55.03;;
64597;SDS011;51004;54.692;9.332;2023-02-15T15:31:39;177.15;;;54.95;;
64597;SDS011;51004;54.692;9.332;2023-02-15T15:34:24;217.07;;;53.15;;
64597;SDS011;51004;54.692;9.332;2023-02-15T15:50:19;213.23;;;55.38;;
64597;SDS011;51004;54.692;9.332;2023-02-15T15:52:50;206.63;;;55.13;;
64597;SDS011;51004;54.692;9.332;2023-02-15T15:55:18;238.77;;;56.60;;
64597;SDS011;51004;54.692;9.332;2023-02-15T15:57:45;229.80;;;58.25;;
64597;SDS011;51004;54.692;9.332;2023-02-15T16:02:56;264.70;;;56.03;;
64597;SDS011;51004;54.692;9.332;2023-02-15T16:05:22;270.00;;;55.17;;
64597;SDS011;51004;54.692;9.332;2023-02-15T16:07:48;282.63;;;55.63;;
64597;SDS011;51004;54.692;9.332;2023-02-15T16:10:27;279.33;;;55.15;;
64597;SDS011;51004;54.692;9.332;2023-02-15T16:12:54;276.40;;;55.92;;
64597;SDS011;51004;54.692;9.332;2023-02-15T16:15:25;320.05;;;58.65;;
64597;SDS011;51004;54.692;9.332;2023-02-15T16:17:53;299.95;;;59.35;;
64597;SDS011;51004;54.692;9.332;2023-02-15T16:20:21;277.00;;;56.45;;
64597;SDS011;51004;54.692;9.332;2023-02-15T16:22:49;355.65;;;61.75;;
64597;SDS011;51004;54.692;9.332;2023-02-15T16:25:31;251.50;;;57.80;;
64597;SDS011;51004;54.692;9.332;2023-02-15T16:28:05;346.38;;;59.13;;
64597;SDS011;51004;54.692;9.332;2023-02-15T16:30:32;326.17;;;59.28;;
64597;SDS011;51004;54.692;9.332;2023-02-15T16:33:16;255.75;;;58.30;;
64597;SDS011;51004;54.692;9.332;2023-02-15T16:35:57;370.50;;;60.53;;
64597;SDS011;51004;54.692;9.332;2023-02-15T16:38:34;330.15;;;56.83;;
64597;SDS011;51004;54.692;9.332;2023-02-15T16:41:11;290.15;;;56.63;;
64597;SDS011;51004;54.692;9.332;2023-02-15T16:43:38;342.17;;;60.38;;
64597;SDS011;51004;54.692;9.332;2023-02-15T16:46:07;374.58;;;60.90;;
64597;SDS011;51004;54.692;9.332;2023-02-15T16:48:38;349.08;;;59.05;;
64597;SDS011;51004;54.692;9.332;2023-02-15T16:51:05;323.33;;;55.67;;
64597;SDS011;51004;54.692;9.332;2023-02-15T16:53:31;339.30;;;60.15;;
64597;SDS011;51004;54.692;9.332;2023-02-15T16:55:58;354.17;;;60.10;;
64597;SDS011;51004;54.692;9.332;2023-02-15T16:58:27;371.88;;;58.67;;
64597;SDS011;51004;54.692;9.332;2023-02-15T17:00:59;326.80;;;59.72;;
64597;SDS011;51004;54.692;9.332;2023-02-15T17:03:27;327.48;;;59.40;;
64597;SDS011;51004;54.692;9.332;2023-02-15T17:05:54;364.00;;;64.82;;
64597;SDS011;51004;54.692;9.332;2023-02-15T17:13:25;331.98;;;61.30;;
64597;SDS011;51004;54.692;9.332;2023-02-15T17:18:38;453.63;;;68.38;;
64597;SDS011;51004;54.692;9.332;2023-02-15T17:21:09;360.20;;;64.65;;
64597;SDS011;51004;54.692;9.332;2023-02-15T17:23:56;365.70;;;63.45;;
64597;SDS011;51004;54.692;9.332;2023-02-15T17:26:35;362.13;;;60.47;;
64597;SDS011;51004;54.692;9.332;2023-02-15T17:31:44;385.90;;;65.50;;